Time;durP1;ratioP1;P1;durP2;ratioP2;P2;SDS_P1;SDS_P2;PMS_P1;PMS_P2;Temp;Humidity;BMP_temperature;BMP_pressure;BME280_temperature;BME280_humidity;BME280_pressure;Samples;Min_cycle;Max_cycle;Signal;HPM_P1;HPM_P2
2023/03/22 00:01:33;;;;;;;;;;;;;;;24.38;46.95;96609.83;593840;239;64958;-63
2023/03/22 00:04:03;;;;;;;;;;;;;;;24.37;44.50;96605.56;593881;239;67066;-63
2023/03/22 00:06:30;;;;;;;;;;;;;;;24.38;47.48;96609.83;593861;239;65146;-63
2023/03/22 00:08:57;;;;;;;;;;;;;;;24.36;46.21;96610.15;593901;239;64791;-63
2023/03/22 00:11:25;;;;;;;;;;;;;;;24.37;48.04;96613.62;590965;239;66887;-63
2023/03/22 00:13:53;;;;;;;;;;;;;;;24.37;49.82;96608.25;593855;239;65070;-63
2023/03/22 00:16:21;;;;;;;;;;;;;;;24.35;47.75;96613.91;593816;239;65021;-63
2023/03/22 00:18:51;;;;;;;;;;;;;;;24.35;47.79;96610.44;593835;239;65893;-63
2023/03/22 00:21:21;;;;;;;;;;;;;;;24.33;47.58;96617.99;593958;239;46353;-63
2023/03/22 00:23:49;;;;;;;;;;;;;;;24.34;46.37;96619.60;593823;239;67409;-63
2023/03/22 00:26:17;;;;;;;;;;;;;;;24.33;48.02;96612.62;593844;239;67066;-63
2023/03/22 00:28:44;;;;;;;;;;;;;;;24.33;50.47;96613.41;593841;239;64876;-63
2023/03/22 00:31:12;;;;;;;;;;;;;;;24.31;45.92;96609.47;593852;239;65034;-63
2023/03/22 00:33:39;;;;;;;;;;;;;;;24.31;48.42;96604.09;593851;239;66656;-63
2023/03/22 00:36:08;;;;;;;;;;;;;;;24.30;45.96;96607.86;593890;239;62750;-63
2023/03/22 00:38:37;;;;;;;;;;;;;;;24.30;48.07;96605.96;593805;238;66838;-63
2023/03/22 00:41:09;;;;;;;;;;;;;;;24.29;47.06;96600.91;593840;239;67373;-63
2023/03/22 00:43:37;;;;;;;;;;;;;;;24.28;49.30;96592.06;593861;239;64931;-63
2023/03/22 00:46:05;;;;;;;;;;;;;;;24.28;48.57;96593.94;593831;239;67120;-63
2023/03/22 00:48:33;;;;;;;;;;;;;;;24.27;47.55;96586.98;593908;239;67189;-63
2023/03/22 00:51:00;;;;;;;;;;;;;;;24.27;49.15;96592.36;593817;239;65191;-63
2023/03/22 00:53:31;;;;;;;;;;;;;;;24.26;48.58;96594.25;593899;239;45178;-63
2023/03/22 00:55:59;;;;;;;;;;;;;;;24.26;47.48;96590.78;593877;239;67068;-62
2023/03/22 00:58:27;;;;;;;;;;;;;;;24.26;49.41;96596.15;588743;239;66585;-62
2023/03/22 01:00:55;;;;;;;;;;;;;;;24.24;48.06;96588.38;593909;239;64375;-62
2023/03/22 01:03:23;;;;;;;;;;;;;;;24.25;48.22;96594.54;593811;239;67246;-62
2023/03/22 01:05:54;;;;;;;;;;;;;;;24.23;47.55;96586.02;593831;239;65168;-62
2023/03/22 01:08:21;;;;;;;;;;;;;;;24.24;49.77;96592.97;593870;239;67404;-62
2023/03/22 01:10:50;;;;;;;;;;;;;;;24.21;48.54;96585.52;593797;239;67123;-62
2023/03/22 01:13:17;;;;;;;;;;;;;;;24.21;48.49;96590.89;593848;239;65066;-62
2023/03/22 01:15:46;;;;;;;;;;;;;;;24.21;48.20;96588.20;593885;239;67210;-62
2023/03/22 01:18:14;;;;;;;;;;;;;;;24.20;46.67;96587.41;593811;239;65169;-62
2023/03/22 01:20:41;;;;;;;;;;;;;;;24.20;48.13;96583.91;593865;239;63717;-62
2023/03/22 01:23:09;;;;;;;;;;;;;;;24.19;49.34;96580.44;593878;239;67395;-63
2023/03/22 01:25:36;;;;;;;;;;;;;;;24.18;48.77;96578.07;593847;239;67194;-62
2023/03/22 01:28:05;;;;;;;;;;;;;;;24.17;46.99;96577.25;593903;239;65063;-62
2023/03/22 01:30:33;;;;;;;;;;;;;;;24.18;47.62;96572.70;593766;239;67227;-62
2023/03/22 01:33:00;;;;;;;;;;;;;;;24.16;48.23;96570.30;593858;239;65074;-62
2023/03/22 01:35:29;;;;;;;;;;;;;;;24.17;48.81;96576.46;593601;239;65043;-62
2023/03/22 01:37:57;;;;;;;;;;;;;;;24.15;47.13;96574.89;592251;238;67739;-62
2023/03/22 01:40:26;;;;;;;;;;;;;;;24.14;47.44;96581.36;590447;240;67029;-62
2023/03/22 01:42:54;;;;;;;;;;;;;;;24.14;49.13;96577.86;590303;240;65048;-62
2023/03/22 01:45:36;;;;;;;;;;;;;;;24.14;46.39;96580.55;590294;240;67753;-62
2023/03/22 01:48:05;;;;;;;;;;;;;;;24.13;46.62;96576.28;590339;239;67531;-62
2023/03/22 01:50:36;;;;;;;;;;;;;;;24.13;47.83;96576.28;589898;238;42229;-62
2023/03/22 01:53:05;;;;;;;;;;;;;;;24.12;46.98;96575.49;590226;240;67189;-62
2023/03/22 01:55:34;;;;;;;;;;;;;;;24.11;46.96;96576.56;590305;240;65138;-63
2023/03/22 01:58:07;;;;;;;;;;;;;;;24.11;49.76;96579.25;589805;239;46212;-63
2023/03/22 02:00:36;;;;;;;;;;;;;;;24.10;46.94;96576.89;589763;240;47238;-63
2023/03/22 02:03:06;;;;;;;;;;;;;;;24.09;46.24;96570.73;590364;239;45361;-63
2023/03/22 02:05:38;;;;;;;;;;;;;;;24.10;50.29;96571.52;590056;240;46606;-63
2023/03/22 02:08:07;;;;;;;;;;;;;;;24.09;47.12;96569.91;590234;240;67812;-63
2023/03/22 02:10:52;;;;;;;;;;;;;;;24.08;48.60;96577.17;589874;240;47911;-63
2023/03/22 02:13:30;;;;;;;;;;;;;;;24.08;47.66;96576.39;590125;240;65020;-63
2023/03/22 02:16:01;;;;;;;;;;;;;;;24.07;46.81;96572.13;589382;240;49095;-63
2023/03/22 02:18:35;;;;;;;;;;;;;;;24.05;45.86;96575.09;589968;240;46701;-62
2023/03/22 02:21:07;;;;;;;;;;;;;;;24.07;50.14;96570.23;590173;240;65087;-63
2023/03/22 02:23:53;;;;;;;;;;;;;;;24.05;46.51;96574.31;590403;239;68020;-62
2023/03/22 02:26:28;;;;;;;;;;;;;;;24.05;47.12;96579.67;590391;240;64368;-62
2023/03/22 02:29:16;;;;;;;;;;;;;;;24.04;46.98;96584.26;589988;239;65243;-62
2023/03/22 02:31:48;;;;;;;;;;;;;;;24.05;47.99;96576.99;590319;239;67790;-63
2023/03/22 02:34:20;;;;;;;;;;;;;;;24.03;46.81;96579.17;590230;240;67193;-62
2023/03/22 02:37:05;;;;;;;;;;;;;;;24.02;46.37;96586.44;590148;238;65749;-62
2023/03/22 02:39:50;;;;;;;;;;;;;;;24.01;49.00;96582.17;593714;239;67318;-62
2023/03/22 02:42:26;;;;;;;;;;;;;;;24.00;47.59;96577.89;593872;239;64892;-62
2023/03/22 02:45:01;;;;;;;;;;;;;;;24.00;47.02;96583.25;593859;239;63074;-62
2023/03/22 02:47:37;;;;;;;;;;;;;;;23.99;46.46;96592.41;592707;239;65064;-62
2023/03/22 02:50:22;;;;;;;;;;;;;;;23.99;47.03;96589.73;593787;239;66965;-62
2023/03/22 02:52:51;;;;;;;;;;;;;;;23.98;48.25;96598.89;593872;239;66027;-63
2023/03/22 02:55:27;;;;;;;;;;;;;;;23.99;51.23;96588.94;591801;239;65670;-63
2023/03/22 02:58:08;;;;;;;;;;;;;;;23.98;48.66;96598.89;593823;239;66864;-63
2023/03/22 03:00:37;;;;;;;;;;;;;;;23.97;47.30;96593.80;593867;239;63043;-61
2023/03/22 03:03:10;;;;;;;;;;;;;;;23.96;48.29;96598.38;593842;239;66087;-61
2023/03/22 03:05:35;;;;;;;;;;;;;;;23.96;47.26;96589.55;593862;239;64425;-62
2023/03/22 03:08:04;;;;;;;;;;;;;;;23.95;46.51;96595.98;593859;239;62777;-62
2023/03/22 03:10:32;;;;;;;;;;;;;;;23.95;49.20;96593.30;593810;239;67733;-63
2023/03/22 03:13:00;;;;;;;;;;;;;;;23.93;46.08;96594.41;593854;239;68056;-62
2023/03/22 03:15:28;;;;;;;;;;;;;;;23.93;47.08;96593.62;593811;238;63134;-62
2023/03/22 03:18:16;;;;;;;;;;;;;;;23.93;48.17;96593.62;588658;239;66369;-62
2023/03/22 03:20:46;;;;;;;;;;;;;;;23.93;47.94;96593.62;593886;239;64707;-63
2023/03/22 03:23:15;;;;;;;;;;;;;;;23.92;47.07;96600.06;593483;239;64891;-63
2023/03/22 03:26:01;;;;;;;;;;;;;;;23.91;47.57;96596.59;593556;239;67161;-63
2023/03/22 03:28:37;;;;;;;;;;;;;;;23.91;48.23;96596.59;593838;239;67107;-62
2023/03/22 03:31:01;;;;;;;;;;;;;;;23.90;49.05;96596.91;593719;238;62900;-62
2023/03/22 03:33:27;;;;;;;;;;;;;;;;;;595143;238;64340;-62
2023/03/22 03:35:56;;;;;;;;;;;;;;;23.89;46.84;96593.41;595284;238;67199;-62
2023/03/22 03:38:25;;;;;;;;;;;;;;;23.88;48.26;96591.04;594516;238;65211;-62
2023/03/22 03:41:00;;;;;;;;;;;;;;;23.89;47.55;96597.98;593411;239;67637;-62
2023/03/22 03:43:28;;;;;;;;;;;;;;;23.87;49.52;96595.61;593194;239;66944;-62
2023/03/22 03:45:56;;;;;;;;;;;;;;;23.87;48.90;96594.80;593884;239;65062;-62
2023/03/22 03:48:25;;;;;;;;;;;;;;;23.86;48.63;96594.00;593800;239;67225;-62
2023/03/22 03:50:53;;;;;;;;;;;;;;;23.86;46.47;96593.22;594769;238;64191;-62
2023/03/22 03:53:21;;;;;;;;;;;;;;;23.84;47.19;96601.55;594998;238;65082;-62
2023/03/22 03:55:49;;;;;;;;;;;;;;;23.85;49.61;96602.37;595045;238;67231;-62
2023/03/22 03:58:16;;;;;;;;;;;;;;;23.84;49.65;96603.45;595029;238;67934;-62
2023/03/22 04:00:45;;;;;;;;;;;;;;;23.84;52.48;96601.55;593717;238;65645;-62
2023/03/22 04:03:23;;;;;;;;;;;;;;;23.83;47.35;96604.55;593882;238;44302;-62
2023/03/22 04:05:56;;;;;;;;;;;;;;;23.83;50.30;96609.92;593948;238;48019;-62
2023/03/22 04:08:23;;;;;;;;;;;;;;;23.82;47.92;96611.81;595054;238;62811;-62
2023/03/22 04:10:51;;;;;;;;;;;;;;;23.81;48.00;96612.09;594934;238;64976;-62
2023/03/22 04:13:24;;;;;;;;;;;;;;;23.81;49.38;96612.09;594991;238;67487;-62
2023/03/22 04:15:50;;;;;;;;;;;;;;;23.80;49.69;96610.52;594951;238;65052;-62
2023/03/22 04:18:18;;;;;;;;;;;;;;;23.80;46.15;96607.84;594978;238;69062;-63
2023/03/22 04:20:48;;;;;;;;;;;;;;;23.80;49.43;96619.36;594990;238;66704;-63
2023/03/22 04:23:16;;;;;;;;;;;;;;;23.78;46.02;96613.48;594663;238;65597;-62
2023/03/22 04:25:49;;;;;;;;;;;;;;;23.78;47.64;96613.48;594752;238;64544;-62
2023/03/22 04:28:14;;;;;;;;;;;;;;;23.77;48.83;96613.80;593450;237;65359;-62
2023/03/22 04:30:44;;;;;;;;;;;;;;;23.76;47.28;96612.20;594803;238;62867;-62
2023/03/22 04:33:15;;;;;;;;;;;;;;;23.75;46.01;96611.41;590355;238;46907;-62
2023/03/22 04:35:49;;;;;;;;;;;;;;;23.76;46.75;96622.92;587011;238;46826;-63
2023/03/22 04:38:17;;;;;;;;;;;;;;;23.76;49.57;96618.35;594223;238;65191;-63
2023/03/22 04:40:45;;;;;;;;;;;;;;;23.75;47.12;96616.77;593716;239;65925;-63
2023/03/22 04:43:20;;;;;;;;;;;;;;;23.74;45.86;96623.24;593614;239;45664;-62
2023/03/22 04:45:53;;;;;;;;;;;;;;;23.74;47.76;96633.19;593150;239;42635;-62
2023/03/22 04:48:26;;;;;;;;;;;;;;;23.75;49.25;96634.77;593790;239;53647;-63
2023/03/22 04:50:52;;;;;;;;;;;;;;;23.73;46.96;96631.58;593740;239;66942;-62
2023/03/22 04:53:26;;;;;;;;;;;;;;;23.73;48.83;96631.58;593863;239;41915;-62
2023/03/22 04:55:50;;;;;;;;;;;;;;;23.72;47.67;96638.05;593738;239;65317;-63
2023/03/22 04:58:20;;;;;;;;;;;;;;;23.71;47.76;96645.30;593889;239;64557;-62
2023/03/22 05:00:48;;;;;;;;;;;;;;;23.70;47.39;96639.09;593760;239;63037;-62
2023/03/22 05:03:18;;;;;;;;;;;;;;;23.71;50.31;96645.30;593826;239;67572;-62
2023/03/22 05:05:52;;;;;;;;;;;;;;;23.70;47.53;96649.03;593813;238;67800;-63
2023/03/22 05:08:21;;;;;;;;;;;;;;;23.69;46.11;96653.61;588736;239;66365;-62
2023/03/22 05:10:49;;;;;;;;;;;;;;;23.69;47.72;96656.29;593847;239;67419;-64
2023/03/22 05:13:16;;;;;;;;;;;;;;;23.69;49.69;96656.29;593829;239;64978;-62
2023/03/22 05:15:46;;;;;;;;;;;;;;;23.69;48.74;96663.55;593847;239;66336;-62
2023/03/22 05:18:14;;;;;;;;;;;;;;;23.68;48.30;96662.76;593789;239;65130;-61
2023/03/22 05:20:43;;;;;;;;;;;;;;;23.67;47.49;96663.05;593817;239;67825;-61
2023/03/22 05:23:18;;;;;;;;;;;;;;;23.67;48.81;96666.52;593837;239;42473;-61
2023/03/22 05:25:46;;;;;;;;;;;;;;;23.67;49.91;96666.52;593656;239;67298;-61
2023/03/22 05:28:18;;;;;;;;;;;;;;;23.66;47.46;96661.46;593815;239;67028;-61
2023/03/22 05:30:47;;;;;;;;;;;;;;;23.65;48.45;96663.35;593670;239;44151;-61
2023/03/22 05:33:20;;;;;;;;;;;;;;;23.67;48.21;96661.15;593600;239;49849;-61
2023/03/22 05:35:50;;;;;;;;;;;;;;;23.67;47.85;96669.20;593843;239;45637;-62
2023/03/22 05:38:18;;;;;;;;;;;;;;;23.66;47.26;96664.94;593798;238;62920;-61
2023/03/22 05:40:47;;;;;;;;;;;;;;;23.68;49.04;96672.67;593875;239;45745;-61
2023/03/22 05:43:15;;;;;;;;;;;;;;;23.68;49.13;96676.17;593805;239;67507;-62
2023/03/22 05:45:45;;;;;;;;;;;;;;;23.68;47.83;96678.86;593863;239;43886;-62
2023/03/22 05:48:14;;;;;;;;;;;;;;;23.69;48.95;96679.64;593441;239;47131;-62
2023/03/22 05:50:42;;;;;;;;;;;;;;;23.69;49.63;96680.44;593843;239;67815;-62
2023/03/22 05:53:10;;;;;;;;;;;;;;;23.70;48.67;96687.38;593868;239;63684;-62
2023/03/22 05:55:56;;;;;;;;;;;;;;;23.72;48.64;96678.29;593668;239;46930;-63
2023/03/22 05:58:23;;;;;;;;;;;;;;;23.72;47.22;96684.45;588700;239;68205;-63
2023/03/22 06:00:50;;;;;;;;;;;;;;;23.73;47.07;96690.59;593871;239;62616;-63
2023/03/22 06:03:23;;;;;;;;;;;;;;;23.74;47.75;96690.31;593922;239;49041;-63
2023/03/22 06:05:53;;;;;;;;;;;;;;;23.75;46.91;96694.58;593056;239;46836;-63
2023/03/22 06:08:23;;;;;;;;;;;;;;;23.77;47.78;96700.45;593837;239;44020;-63
2023/03/22 06:10:51;;;;;;;;;;;;;;;23.77;47.24;96697.77;593854;239;67583;-63
2023/03/22 06:13:19;;;;;;;;;;;;;;;23.79;48.94;96702.83;593866;239;65690;-63
2023/03/22 06:15:47;;;;;;;;;;;;;;;23.80;47.54;96701.75;593848;239;65823;-63
2023/03/22 06:18:16;;;;;;;;;;;;;;;23.81;50.35;96714.06;593747;239;43439;-63
2023/03/22 06:20:45;;;;;;;;;;;;;;;23.83;47.61;96706.52;593856;239;44268;-63
2023/03/22 06:23:17;;;;;;;;;;;;;;;23.83;47.35;96714.57;593822;239;46985;-62
2023/03/22 06:25:45;;;;;;;;;;;;;;;23.86;47.54;96722.03;593430;239;67492;-62
2023/03/22 06:28:17;;;;;;;;;;;;;;;23.85;48.99;96721.23;593575;239;46578;-62
2023/03/22 06:30:52;;;;;;;;;;;;;;;23.88;48.00;96725.22;593663;239;42487;-62
2023/03/22 06:33:28;;;;;;;;;;;;;;;23.90;48.20;96728.41;593535;239;45527;-61
2023/03/22 06:35:58;;;;;;;;;;;;;;;23.90;49.89;96733.77;593534;239;45065;-62
2023/03/22 06:38:28;;;;;;;;;;;;;;;23.92;50.33;96732.36;593535;238;42445;-62
2023/03/22 06:40:55;;;;;;;;;;;;;;;23.92;50.13;96729.67;593814;239;66985;-61
2023/03/22 06:43:23;;;;;;;;;;;;;;;23.93;48.77;96733.17;593787;239;64794;-62
2023/03/22 06:45:52;;;;;;;;;;;;;;;23.96;49.49;96735.27;593584;239;65796;-61
2023/03/22 06:48:21;;;;;;;;;;;;;;;23.98;49.20;96738.45;593564;238;45560;-60
2023/03/22 06:50:51;;;;;;;;;;;;;;;24.01;49.08;96739.72;593603;239;47741;-62
2023/03/22 06:53:20;;;;;;;;;;;;;;;24.02;43.81;96746.70;593591;239;41388;-62
2023/03/22 06:55:48;;;;;;;;;;;;;;;24.05;43.75;96741.52;593791;239;68044;-61
2023/03/22 06:58:20;;;;;;;;;;;;;;;24.07;42.40;96750.08;593753;239;44233;-60
2023/03/22 07:00:48;;;;;;;;;;;;;;;24.11;41.79;96758.33;593814;239;62600;-60
2023/03/22 07:03:15;;;;;;;;;;;;;;;24.14;44.31;96760.41;593553;239;67543;-60
2023/03/22 07:05:45;;;;;;;;;;;;;;;24.18;45.37;96755.27;593639;239;49277;-61
2023/03/22 07:08:12;;;;;;;;;;;;;;;24.18;44.87;96760.64;593218;238;63741;-60
2023/03/22 07:10:46;;;;;;;;;;;;;;;24.23;43.99;96766.70;591046;239;44802;-61
2023/03/22 07:13:14;;;;;;;;;;;;;;;24.26;43.64;96765.31;590107;240;67034;-62
2023/03/22 07:15:42;;;;;;;;;;;;;;;24.28;43.83;96763.92;587449;240;65907;-62
2023/03/22 07:18:11;;;;;;;;;;;;;;;24.31;45.78;96759.85;589955;240;44541;-62
2023/03/22 07:20:40;;;;;;;;;;;;;;;24.34;43.42;96764.63;590152;240;64944;-62
2023/03/22 07:23:09;;;;;;;;;;;;;;;24.36;44.69;96762.41;590105;240;65047;-62
2023/03/22 07:25:38;;;;;;;;;;;;;;;24.39;43.83;96772.58;590307;240;48290;-62
2023/03/22 07:28:26;;;;;;;;;;;;;;;24.41;45.06;96770.37;591171;239;47144;-62
2023/03/22 07:31:01;;;;;;;;;;;;;;;24.43;42.59;96773.56;591045;240;65889;-61
2023/03/22 07:33:29;;;;;;;;;;;;;;;24.46;42.55;96777.58;591132;240;67466;-61
2023/03/22 07:35:57;;;;;;;;;;;;;;;24.49;44.06;96782.34;590962;240;66915;-62
2023/03/22 07:38:26;;;;;;;;;;;;;;;24.50;42.30;96779.38;591159;240;45008;-61
2023/03/22 07:40:55;;;;;;;;;;;;;;;24.53;41.66;96772.61;591033;239;44299;-62
2023/03/22 07:43:25;;;;;;;;;;;;;;;24.55;42.74;96784.64;591073;240;47221;-61
2023/03/22 07:45:54;;;;;;;;;;;;;;;24.58;41.38;96780.54;591026;240;44041;-62
2023/03/22 07:48:40;;;;;;;;;;;;;;;24.59;41.36;96772.19;591245;240;37846;-62
2023/03/22 07:51:10;;;;;;;;;;;;;;;24.62;41.48;96776.17;581301;239;47000;-62
2023/03/22 07:53:37;;;;;;;;;;;;;;;24.64;41.48;96779.36;591101;239;62809;-61
2023/03/22 07:56:05;;;;;;;;;;;;;;;24.64;42.40;96778.57;591089;240;67129;-62
2023/03/22 07:58:33;;;;;;;;;;;;;;;24.67;43.48;96780.66;591048;240;67053;-61
2023/03/22 08:01:07;;;;;;;;;;;;;;;24.68;40.95;96774.17;591275;239;63035;-62
2023/03/22 08:03:43;;;;;;;;;;;;;;;24.70;41.90;96777.36;590322;240;46959;-61
2023/03/22 08:06:31;;;;;;;;;;;;;;;24.71;41.54;96781.62;590630;239;47910;-62
2023/03/22 08:08:59;;;;;;;;;;;;;;;24.73;42.13;96771.38;590895;240;65227;-62
2023/03/22 08:11:26;;;;;;;;;;;;;;;24.73;42.41;96774.86;590595;240;65121;-62
2023/03/22 08:13:54;;;;;;;;;;;;;;;24.75;45.29;96774.57;590603;240;67576;-63
2023/03/22 08:16:22;;;;;;;;;;;;;;;24.75;41.93;96782.63;585912;240;62064;-62
2023/03/22 08:18:50;;;;;;;;;;;;;;;24.75;44.81;96779.95;591166;240;67783;-61
2023/03/22 08:21:18;;;;;;;;;;;;;;;24.76;42.93;96779.63;591145;240;67558;-61
2023/03/22 08:23:47;;;;;;;;;;;;;;;24.77;45.12;96783.11;591060;240;43676;-60
2023/03/22 08:26:23;;;;;;;;;;;;;;;24.78;43.76;96779.34;591057;240;48277;-60
2023/03/22 08:28:51;;;;;;;;;;;;;;;24.80;42.44;96779.84;591127;239;67738;-61
2023/03/22 08:31:19;;;;;;;;;;;;;;;24.81;42.01;96778.73;591142;239;62924;-61
2023/03/22 08:33:47;;;;;;;;;;;;;;;24.83;43.74;96776.55;592039;238;67467;-61
2023/03/22 08:36:17;;;;;;;;;;;;;;;24.84;43.32;96778.13;589794;238;65035;-61
2023/03/22 08:38:47;;;;;;;;;;;;;;;24.85;44.15;96785.09;583187;239;45031;-63
2023/03/22 08:41:16;;;;;;;;;;;;;;;24.84;45.57;96783.50;583506;242;67868;-64
2023/03/22 08:43:44;;;;;;;;;;;;;;;24.87;43.00;96787.48;585933;242;67077;-65
2023/03/22 08:46:11;;;;;;;;;;;;;;;24.87;43.67;96788.27;586204;241;63047;-65
2023/03/22 08:48:40;;;;;;;;;;;;;;;24.90;44.35;96786.88;585947;242;67321;-65
2023/03/22 08:51:09;;;;;;;;;;;;;;;24.90;42.68;96795.73;585898;242;44093;-63
2023/03/22 08:53:38;;;;;;;;;;;;;;;24.91;42.61;96794.66;585766;242;43061;-65
2023/03/22 08:56:18;;;;;;;;;;;;;;;24.93;42.27;96802.40;578866;242;46956;-65
2023/03/22 08:58:47;;;;;;;;;;;;;;;24.93;42.01;96795.13;583245;242;43699;-63
2023/03/22 09:01:20;;;;;;;;;;;;;;;24.94;43.80;96794.05;572151;242;46339;-64
2023/03/22 09:03:49;;;;;;;;;;;;;;;24.91;45.28;96799.20;586075;241;44626;-63
2023/03/22 09:06:17;;;;;;;;;;;;;;;24.91;45.55;96800.03;586029;242;67035;-63
2023/03/22 09:08:45;;;;;;;;;;;;;;;24.91;43.95;96791.97;586104;242;63003;-64
2023/03/22 09:11:15;;;;;;;;;;;;;;;24.91;41.55;96800.03;586162;242;64752;-65
2023/03/22 09:13:43;;;;;;;;;;;;;;;24.92;43.11;96787.38;586124;242;67184;-64
2023/03/22 09:16:11;;;;;;;;;;;;;;;24.93;43.97;96795.13;585926;242;62711;-64
2023/03/22 09:18:39;;;;;;;;;;;;;;;24.94;43.61;96798.63;586050;242;67212;-64
2023/03/22 09:21:12;;;;;;;;;;;;;;;24.94;43.75;96796.73;586058;242;44955;-64
2023/03/22 09:23:42;;;;;;;;;;;;;;;24.96;40.85;96797.23;585254;241;42415;-64
2023/03/22 09:26:10;;;;;;;;;;;;;;;25.00;41.14;96794.73;583534;242;67295;-62
2023/03/22 09:28:38;;;;;;;;;;;;;;;25.01;41.78;96791.72;586221;242;67897;-62
2023/03/22 09:31:08;;;;;;;;;;;;;;;25.02;43.10;96796.02;586129;242;62525;-64
2023/03/22 09:33:39;;;;;;;;;;;;;;;25.05;40.18;96791.94;586020;242;67223;-64
2023/03/22 09:36:08;;;;;;;;;;;;;;;25.10;40.69;96791.83;585934;240;67165;-67
2023/03/22 09:38:36;;;;;;;;;;;;;;;25.13;41.03;96785.05;590427;239;65610;-67
2023/03/22 09:41:05;;;;;;;;;;;;;;;25.16;42.79;96790.64;591325;240;67841;-65
2023/03/22 09:43:36;;;;;;;;;;;;;;;25.18;41.01;96793.83;591238;240;67667;-65
2023/03/22 09:46:06;;;;;;;;;;;;;;;25.20;41.94;96796.98;590939;240;65794;-64
2023/03/22 09:48:35;;;;;;;;;;;;;;;25.17;40.65;96792.22;591262;240;67065;-64
2023/03/22 09:51:04;;;;;;;;;;;;;;;25.17;42.65;96799.49;591219;240;67207;-64
2023/03/22 09:53:31;;;;;;;;;;;;;;;25.15;41.87;96798.99;591239;240;65017;-64
2023/03/22 09:56:07;;;;;;;;;;;;;;;25.15;42.04;96799.78;591213;240;67456;-64
2023/03/22 09:58:45;;;;;;;;;;;;;;;25.15;43.28;96797.09;591136;240;67094;-64
2023/03/22 10:01:20;;;;;;;;;;;;;;;25.15;41.43;96798.99;592962;235;65149;-64
2023/03/22 10:03:49;;;;;;;;;;;;;;;25.16;42.76;96795.22;592208;235;67252;-65
2023/03/22 10:06:24;;;;;;;;;;;;;;;25.16;40.47;96800.60;593629;235;67050;-65
2023/03/22 10:09:00;;;;;;;;;;;;;;;25.16;41.41;96798.70;593034;239;63048;-65
2023/03/22 10:11:38;;;;;;;;;;;;;;;25.18;42.80;96798.38;591193;240;64559;-67
2023/03/22 10:14:08;;;;;;;;;;;;;;;25.17;43.60;96808.34;591112;240;67109;-66
2023/03/22 10:16:35;;;;;;;;;;;;;;;25.19;43.24;96808.06;591256;240;65063;-65
2023/03/22 10:19:05;;;;;;;;;;;;;;;25.17;42.21;96800.28;591232;240;67273;-66
2023/03/22 10:21:32;;;;;;;;;;;;;;;25.18;42.43;96807.27;590353;240;64934;-65
2023/03/22 10:24:05;;;;;;;;;;;;;;;25.18;43.75;96804.58;591272;240;65087;-66
2023/03/22 10:26:37;;;;;;;;;;;;;;;25.19;44.51;96802.68;591040;240;64880;-62
2023/03/22 10:29:06;;;;;;;;;;;;;;;25.19;44.61;96800.78;591231;240;66932;-62
2023/03/22 10:31:34;;;;;;;;;;;;;;;25.20;43.06;96804.26;587435;240;63053;-61
2023/03/22 10:34:12;;;;;;;;;;;;;;;25.20;43.39;96802.36;591189;240;67260;-62
2023/03/22 10:36:41;;;;;;;;;;;;;;;25.21;41.96;96812.04;591204;239;66653;-62
2023/03/22 10:39:11;;;;;;;;;;;;;;;25.21;42.97;96803.18;591113;238;41486;-62
2023/03/22 10:41:39;;;;;;;;;;;;;;;25.23;41.30;96803.66;588465;240;64762;-63
2023/03/22 10:44:07;;;;;;;;;;;;;;;25.25;41.85;96809.53;590117;240;64969;-62
2023/03/22 10:46:39;;;;;;;;;;;;;;;25.25;41.81;96804.94;591262;240;62773;-61
2023/03/22 10:49:10;;;;;;;;;;;;;;;25.25;40.92;96802.25;591277;240;46607;-63
2023/03/22 10:51:47;;;;;;;;;;;;;;;25.27;41.83;96801.17;591191;239;65456;-62
2023/03/22 10:54:16;;;;;;;;;;;;;;;25.27;42.55;96804.66;591137;240;62867;-62
2023/03/22 10:56:43;;;;;;;;;;;;;;;25.28;42.92;96794.68;591199;240;64640;-61
2023/03/22 10:59:12;;;;;;;;;;;;;;;25.29;41.32;96802.45;591210;238;65051;-62
2023/03/22 11:01:41;;;;;;;;;;;;;;;25.29;43.36;96802.45;590339;240;63635;-62
2023/03/22 11:04:10;;;;;;;;;;;;;;;25.30;41.35;96801.34;591174;240;67022;-62
2023/03/22 11:06:39;;;;;;;;;;;;;;;25.30;41.56;96798.66;591299;240;67044;-62
2023/03/22 11:09:11;;;;;;;;;;;;;;;25.31;43.36;96805.62;591144;240;63099;-62
2023/03/22 11:11:40;;;;;;;;;;;;;;;25.32;40.86;96798.34;591115;239;67496;-61
2023/03/22 11:14:27;;;;;;;;;;;;;;;25.32;41.85;96801.03;592053;238;67094;-62
2023/03/22 11:16:59;;;;;;;;;;;;;;;25.32;41.01;96795.65;593820;239;65066;-63
2023/03/22 11:19:28;;;;;;;;;;;;;;;25.32;43.68;96792.95;593511;239;65102;-63
2023/03/22 11:21:56;;;;;;;;;;;;;;;25.33;41.21;96794.56;593986;239;64928;-63
2023/03/22 11:24:25;;;;;;;;;;;;;;;25.33;42.40;96792.67;593768;239;65170;-63
2023/03/22 11:26:54;;;;;;;;;;;;;;;25.33;41.08;96786.50;593521;238;67265;-63
2023/03/22 11:29:22;;;;;;;;;;;;;;;25.34;42.15;96791.55;590002;239;66948;-63
2023/03/22 11:31:51;;;;;;;;;;;;;;;25.33;41.35;96784.59;593739;239;65075;-63
2023/03/22 11:34:20;;;;;;;;;;;;;;;25.34;42.96;96782.70;593745;239;67208;-63
2023/03/22 11:36:55;;;;;;;;;;;;;;;25.36;41.29;96788.58;593644;239;67230;-63
2023/03/22 11:39:17;;;;;;;;;;;;;;;25.35;42.07;96782.41;592371;239;65087;-63
2023/03/22 11:41:45;;;;;;;;;;;;;;;25.36;40.99;96778.61;592560;239;67305;-63
2023/03/22 11:44:14;;;;;;;;;;;;;;;25.36;44.79;96777.81;592615;239;67223;-63
2023/03/22 11:46:50;;;;;;;;;;;;;;;25.35;43.39;96777.03;592551;239;62867;-63
2023/03/22 11:49:17;;;;;;;;;;;;;;;25.36;42.15;96769.75;592552;239;65016;-63
2023/03/22 11:51:45;;;;;;;;;;;;;;;25.35;42.55;96776.23;592635;239;64571;-63
2023/03/22 11:54:33;;;;;;;;;;;;;;;25.35;41.36;96770.86;592489;239;63054;-63
2023/03/22 11:57:03;;;;;;;;;;;;;;;25.36;43.96;96772.44;592522;239;67915;-62
2023/03/22 11:59:32;;;;;;;;;;;;;;;25.35;44.48;96773.55;592535;239;65378;-63
2023/03/22 12:02:01;;;;;;;;;;;;;;;25.35;42.17;96771.65;592477;239;62929;-64
2023/03/22 12:04:30;;;;;;;;;;;;;;;25.34;43.51;96778.11;582399;239;65120;-63
2023/03/22 12:07:02;;;;;;;;;;;;;;;25.31;42.03;96783.31;591999;239;67079;-63
2023/03/22 12:09:46;;;;;;;;;;;;;;;25.31;43.17;96780.62;592387;239;65060;-63
2023/03/22 12:12:16;;;;;;;;;;;;;;;25.31;46.45;96784.10;582619;241;66819;-61
2023/03/22 12:14:47;;;;;;;;;;;;;;;25.31;41.86;96776.03;589335;239;67063;-61
2023/03/22 12:17:16;;;;;;;;;;;;;;;25.34;40.40;96778.11;592390;239;64632;-61
2023/03/22 12:19:46;;;;;;;;;;;;;;;25.35;40.50;96777.03;592497;239;64610;-62
2023/03/22 12:22:15;;;;;;;;;;;;;;;25.37;40.66;96774.83;592348;239;64856;-62
2023/03/22 12:24:42;;;;;;;;;;;;;;;25.37;40.33;96768.64;592611;239;62928;-62
2023/03/22 12:27:15;;;;;;;;;;;;;;;25.37;40.24;96769.45;592616;239;65312;-62
2023/03/22 12:29:47;;;;;;;;;;;;;;;25.38;40.36;96773.72;592520;239;67312;-62
2023/03/22 12:32:20;;;;;;;;;;;;;;;25.40;42.25;96768.02;590115;239;65043;-63
2023/03/22 12:34:54;;;;;;;;;;;;;;;25.39;40.37;96771.82;592329;239;64888;-62
2023/03/22 12:37:22;;;;;;;;;;;;;;;25.40;41.66;96770.71;592522;239;67177;-61
2023/03/22 12:39:58;;;;;;;;;;;;;;;25.41;41.04;96769.63;592609;239;62976;-61
2023/03/22 12:42:33;;;;;;;;;;;;;;;25.41;40.93;96775.80;589570;239;67235;-61
2023/03/22 12:45:05;;;;;;;;;;;;;;;25.43;41.97;96767.44;592392;239;67090;-62
2023/03/22 12:47:37;;;;;;;;;;;;;;;25.41;40.70;96773.11;592274;239;65037;-63
2023/03/22 12:50:19;;;;;;;;;;;;;;;25.42;40.29;96776.59;592414;239;67332;-62
2023/03/22 12:52:52;;;;;;;;;;;;;;;25.43;40.80;96765.53;592651;239;67102;-61
2023/03/22 12:55:34;;;;;;;;;;;;;;;25.44;40.64;96772.49;592502;239;47082;-61
2023/03/22 12:58:04;;;;;;;;;;;;;;;25.43;41.72;96765.53;592461;239;67309;-62
2023/03/22 13:00:40;;;;;;;;;;;;;;;25.44;41.62;96767.11;592630;239;65791;-61
2023/03/22 13:03:17;;;;;;;;;;;;;;;25.45;41.83;96768.72;592335;239;43771;-62
2023/03/22 13:05:45;;;;;;;;;;;;;;;25.46;40.92;96762.23;592884;239;67242;-62